Terminal Aerodrome Forecast
Issued by NWS Shreveport, LA

Home | Current Version | Previous Version | Text Only | Print | Product List | Glossary On
Versions: 1 2 3 4 5 6 7 8 9 10 11 12 13
000
FTUS44 KSHV 181100
TAFMLU
TAF
KMLU 181132Z 1812/1912 06006KT P6SM -RA OVC030
      TEMPO 1812/1816 5SM -RA BR OVC015
     FM181600 05005KT P6SM VCSH OVC015
      TEMPO 1816/1819 5SM -RA BR OVC009
     FM182300 06003KT P6SM OVC025
     FM190400 04003KT 5SM BR OVC010=

USA.gov is the U.S. government's official web portal to all federal, state and local government web resources and services.